Time;durP1;ratioP1;P1;durP2;ratioP2;P2;SDS_P1;SDS_P2;PMS_P1;PMS_P2;Temp;Humidity;BMP_temperature;BMP_pressure;BME280_temperature;BME280_humidity;BME280_pressure;Samples;Min_cycle;Max_cycle;Signal;HPM_P1;HPM_P2
2021/11/29 00:02:18;;;;;;;73.90;20.90;;;;;;;;;;5024475;28;20124;-64
2021/11/29 00:04:45;;;;;;;60.42;20.65;;;;;;;;;;5024494;28;20165;-64
2021/11/29 00:07:11;;;;;;;74.57;20.67;;;;;;;;;;5023854;28;20040;-64
2021/11/29 00:09:37;;;;;;;74.47;21.27;;;;;;;;;;5024252;28;20037;-64
2021/11/29 00:12:03;;;;;;;88.90;23.35;;;;;;;;;;5024426;28;20036;-64
2021/11/29 00:14:29;;;;;;;91.70;23.75;;;;;;;;;;5024129;28;20109;-64
2021/11/29 00:16:55;;;;;;;71.35;20.65;;;;;;;;;;5023371;28;20045;-64
2021/11/29 00:19:22;;;;;;;79.03;20.63;;;;;;;;;;5024290;28;20056;-64
2021/11/29 00:21:48;;;;;;;96.40;22.45;;;;;;;;;;5024551;28;20557;-64
2021/11/29 00:24:14;;;;;;;75.93;21.67;;;;;;;;;;5022377;28;20033;-64
2021/11/29 00:26:40;;;;;;;78.68;22.08;;;;;;;;;;5025026;28;20044;-64
2021/11/29 00:29:06;;;;;;;87.13;21.85;;;;;;;;;;5024354;28;20025;-64
2021/11/29 00:31:32;;;;;;;88.00;23.38;;;;;;;;;;5021989;28;20028;-64
2021/11/29 00:33:58;;;;;;;107.65;23.40;;;;;;;;;;5024090;28;20044;-64
2021/11/29 00:36:24;;;;;;;88.75;21.58;;;;;;;;;;5024267;28;20029;-63
2021/11/29 00:38:50;;;;;;;87.43;21.90;;;;;;;;;;5023765;28;20041;-64
2021/11/29 00:41:16;;;;;;;124.15;31.27;;;;;;;;;;5023806;28;20026;-64
2021/11/29 00:43:42;;;;;;;103.07;25.10;;;;;;;;;;5023565;28;20037;-63
2021/11/29 00:46:08;;;;;;;111.82;24.70;;;;;;;;;;5022404;28;20441;-64
2021/11/29 00:48:34;;;;;;;97.72;23.80;;;;;;;;;;5005061;28;20481;-64
2021/11/29 00:51:00;;;;;;;97.25;24.58;;;;;;;;;;5024053;28;20040;-66
2021/11/29 00:53:26;;;;;;;95.03;24.48;;;;;;;;;;5023321;28;20025;-64
2021/11/29 00:55:52;;;;;;;93.43;23.45;;;;;;;;;;5012669;28;20048;-64
2021/11/29 00:58:18;;;;;;;97.15;23.17;;;;;;;;;;5024830;28;20432;-64
2021/11/29 01:00:44;;;;;;;101.55;25.48;;;;;;;;;;5023003;28;20038;-64
2021/11/29 01:03:10;;;;;;;70.95;24.40;;;;;;;;;;5023390;28;20114;-64
2021/11/29 01:05:36;;;;;;;65.95;22.92;;;2.30;99.90;;;;;;5023657;28;20120;-64
2021/11/29 01:08:02;;;;;;;67.40;23.42;;;;;;;;;;5023089;28;20512;-63
2021/11/29 01:10:28;;;;;;;111.13;25.27;;;;;;;;;;5023773;28;20025;-64
2021/11/29 01:12:54;;;;;;;87.60;24.05;;;;;;;;;;5008698;28;20067;-64
2021/11/29 01:15:20;;;;;;;90.80;25.25;;;;;;;;;;5022993;28;20033;-63
2021/11/29 01:17:46;;;;;;;96.18;25.13;;;;;;;;;;5021616;28;20036;-64
2021/11/29 01:20:12;;;;;;;92.30;24.25;;;;;;;;;;5023185;28;20611;-64
2021/11/29 01:22:38;;;;;;;98.47;23.35;;;;;;;;;;5023297;28;20126;-64
2021/11/29 01:25:04;;;;;;;102.28;24.33;;;;;;;;;;5022587;28;20040;-64
2021/11/29 01:27:30;;;;;;;93.75;22.60;;;;;;;;;;5023430;28;20036;-64
2021/11/29 01:29:56;;;;;;;114.72;25.60;;;;;;;;;;5022598;28;20044;-64
2021/11/29 01:32:22;;;;;;;76.28;24.05;;;;;;;;;;5023023;28;20025;-64
2021/11/29 01:34:48;;;;;;;101.78;24.55;;;;;;;;;;5023021;28;20034;-64
2021/11/29 01:37:14;;;;;;;78.55;23.70;;;;;;;;;;5023079;28;20032;-64
2021/11/29 01:39:40;;;;;;;106.95;23.83;;;;;;;;;;5023399;28;20099;-64
2021/11/29 01:42:07;;;;;;;103.90;24.88;;;;;;;;;;5004707;28;20045;-64
2021/11/29 01:44:33;;;;;;;99.93;24.45;;;;;;;;;;5022127;28;20029;-64
2021/11/29 01:46:59;;;;;;;100.63;24.67;;;;;;;;;;5022838;28;20559;-64
2021/11/29 01:49:25;;;;;;;112.10;29.05;;;;;;;;;;5022990;28;20021;-64
2021/11/29 01:51:51;;;;;;;113.38;27.38;;;;;;;;;;5022671;28;20053;-64
2021/11/29 01:54:17;;;;;;;117.30;26.88;;;;;;;;;;5022420;28;20416;-64
2021/11/29 01:56:43;;;;;;;127.82;28.80;;;;;;;;;;5022935;28;20536;-64
2021/11/29 01:59:09;;;;;;;122.03;26.33;;;;;;;;;;5022841;28;20025;-64
2021/11/29 02:01:35;;;;;;;101.72;24.95;;;;;;;;;;5022382;28;20037;-64
2021/11/29 02:04:01;;;;;;;111.78;25.65;;;;;;;;;;5020801;28;20127;-64
2021/11/29 02:06:28;;;;;;;113.72;25.27;;;;;;;;;;5023050;28;20033;-64
2021/11/29 02:08:54;;;;;;;111.75;26.60;;;;;;;;;;5022601;28;20041;-64
2021/11/29 02:11:20;;;;;;;109.57;25.80;;;;;;;;;;5005706;28;20075;-64
2021/11/29 02:13:46;;;;;;;112.68;26.52;;;;;;;;;;5022628;28;20032;-64
2021/11/29 02:16:12;;;;;;;108.28;25.50;;;;;;;;;;5025204;28;20060;-64
2021/11/29 02:18:40;;;;;;;107.80;24.83;;;;;;;;;;5023625;28;20060;-64
2021/11/29 02:21:06;;;;;;;115.80;27.60;;;;;;;;;;5022750;28;20064;-64
2021/11/29 02:23:32;;;;;;;102.22;26.48;;;;;;;;;;5022007;28;20065;-64
2021/11/29 02:25:58;;;;;;;118.05;26.70;;;;;;;;;;5022270;28;20116;-64
2021/11/29 02:28:24;;;;;;;111.28;25.02;;;;;;;;;;5001225;28;20036;-64
2021/11/29 02:30:50;;;;;;;101.82;25.35;;;;;;;;;;5022184;28;20473;-64
2021/11/29 02:33:16;;;;;;;110.32;25.88;;;;;;;;;;5021946;28;20026;-65
2021/11/29 02:35:43;;;;;;;116.50;25.13;;;;;;;;;;5022703;28;20755;-65
2021/11/29 02:38:09;;;;;;;111.95;26.17;;;;;;;;;;5021951;28;20033;-66
2021/11/29 02:40:35;;;;;;;127.88;27.45;;;;;;;;;;5022637;28;20025;-68
2021/11/29 02:43:01;;;;;;;105.75;25.92;;;;;;;;;;5028890;28;20136;-66
2021/11/29 02:45:27;;;;;;;111.20;25.77;;;;;;;;;;5028092;28;20025;-65
2021/11/29 02:47:53;;;;;;;105.32;24.55;;;;;;;;;;5020648;28;20038;-65
2021/11/29 02:50:19;;;;;;;103.18;24.13;;;;;;;;;;5026243;28;20030;-66
2021/11/29 02:52:45;;;;;;;97.28;25.23;;;;;;;;;;5025876;28;20735;-65
2021/11/29 02:55:11;;;;;;;91.18;23.85;;;;;;;;;;5025947;28;20087;-65
2021/11/29 02:57:37;;;;;;;86.90;22.17;;;;;;;;;;5005533;28;20074;-65
2021/11/29 03:00:03;;;;;;;96.80;23.85;;;;;;;;;;5025611;28;20037;-65
2021/11/29 03:02:32;;;;;;;102.32;22.77;;;;;;;;;;5025827;28;20087;-65
2021/11/29 03:04:58;;;;;;;92.85;23.75;;;;;;;;;;5024506;28;20033;-65
2021/11/29 03:07:24;;;;;;;87.63;23.95;;;;;;;;;;5025553;28;20072;-65
2021/11/29 03:09:50;;;;;;;100.13;24.55;;;;;;;;;;5025732;28;20053;-65
2021/11/29 03:12:16;;;;;;;95.35;24.58;;;;;;;;;;5025762;28;20029;-65
2021/11/29 03:14:42;;;;;;;94.13;25.08;;;;;;;;;;5025240;28;20036;-65
2021/11/29 03:17:08;;;;;;;90.05;24.23;;;;;;;;;;5024924;28;20036;-65
2021/11/29 03:19:34;;;;;;;101.53;24.75;;;;;;;;;;5027346;28;20753;-65
2021/11/29 03:22:00;;;;;;;94.65;23.73;;;;;;;;;;5025220;28;20042;-65
2021/11/29 03:24:26;;;;;;;97.78;25.70;;;;;;;;;;5025210;28;20036;-65
2021/11/29 03:26:52;;;;;;;99.05;25.45;;;;;;;;;;5025726;28;20045;-65
2021/11/29 03:29:19;;;;;;;101.45;25.48;;;;;;;;;;5025329;28;20067;-65
2021/11/29 03:31:45;;;;;;;100.18;26.05;;;;;;;;;;5012874;28;20041;-65
2021/11/29 03:34:11;;;;;;;105.60;26.13;;;;;;;;;;5025050;28;20040;-65
2021/11/29 03:36:37;;;;;;;116.30;27.38;;;;;;;;;;5025055;28;20040;-65
2021/11/29 03:39:03;;;;;;;85.10;25.73;;;;;;;;;;5025342;28;20103;-65
2021/11/29 03:41:29;;;;;;;119.47;29.15;;;;;;;;;;5025724;28;20044;-65
2021/11/29 03:43:55;;;;;;;107.28;25.42;;;;;;;;;;5007011;28;20557;-65
2021/11/29 03:46:21;;;;;;;111.82;27.40;;;;;;;;;;5024640;28;20105;-65
2021/11/29 03:48:47;;;;;;;121.47;27.83;;;;;;;;;;5025109;28;20101;-65
2021/11/29 03:51:13;;;;;;;118.07;27.77;;;;;;;;;;5024538;28;20041;-65
2021/11/29 03:53:39;;;;;;;129.23;28.67;;;;;;;;;;5025087;28;20033;-65
2021/11/29 03:56:05;;;;;;;119.32;28.70;;;;;;;;;;5025047;28;20038;-65
2021/11/29 03:58:31;;;;;;;116.20;29.10;;;;;;;;;;5024512;28;20029;-65
2021/11/29 04:00:57;;;;;;;124.03;29.75;;;;;;;;;;5024791;28;20219;-65
2021/11/29 04:03:24;;;;;;;117.97;28.33;;;;;;;;;;5024710;28;20036;-65
2021/11/29 04:05:50;;;;;;;113.70;27.90;;;;;;;;;;5023059;28;20041;-72
2021/11/29 04:08:16;;;;;;;125.82;28.90;;;;;;;;;;5023726;28;20075;-72
2021/11/29 04:10:42;;;;;;;119.72;29.85;;;;;;;;;;5024860;28;20029;-72
2021/11/29 04:13:08;;;;;;;123.45;28.88;;;;;;;;;;5024177;28;20144;-72
2021/11/29 04:15:34;;;;;;;120.55;30.25;;;;;;;;;;5024717;28;20061;-72
2021/11/29 04:18:00;;;;;;;120.85;28.15;;;;;;;;;;4986818;28;20033;-72
2021/11/29 04:20:26;;;;;;;117.78;28.20;;;;;;;;;;5024265;28;20417;-72
2021/11/29 04:22:52;;;;;;;111.72;28.25;;;;;;;;;;5024312;28;20068;-72
2021/11/29 04:25:19;;;;;;;116.95;28.27;;;;;;;;;;5024316;28;20060;-71
2021/11/29 04:27:45;;;;;;;112.90;27.52;;;;;;;;;;5014067;28;20048;-73
2021/11/29 04:30:13;;;;;;;117.90;27.52;;;;;;;;;;5023776;28;20085;-72
2021/11/29 04:32:39;;;;;;;127.95;30.08;;;;;;;;;;5024487;28;20196;-71
2021/11/29 04:35:06;;;;;;;130.00;29.40;;;;;;;;;;5023530;28;20512;-72
2021/11/29 04:37:32;;;;;;;119.18;28.38;;;;;;;;;;5024412;28;20041;-73
2021/11/29 04:39:58;;;;;;;121.68;29.27;;;;;;;;;;5024285;28;20087;-72
2021/11/29 04:42:24;;;;;;;124.78;30.33;;;;;;;;;;5023800;28;20483;-72
2021/11/29 04:44:50;;;;;;;125.53;29.00;;;;;;;;;;5021883;28;20033;-72
2021/11/29 04:47:16;;;;;;;130.07;30.17;;;;;;;;;;5024104;28;20435;-72
2021/11/29 04:49:42;;;;;;;134.60;30.83;;;;;;;;;;5023832;28;20026;-72
2021/11/29 04:52:08;;;;;;;115.35;29.77;;;;;;;;;;5024150;28;20037;-73
2021/11/29 04:54:34;;;;;;;126.05;30.70;;;;;;;;;;5023912;28;20738;-74
2021/11/29 04:57:00;;;;;;;147.95;33.55;;;;;;;;;;5023663;28;20029;-73
2021/11/29 04:59:26;;;;;;;127.50;31.20;;;;;;;;;;5024017;28;20036;-72
2021/11/29 05:01:55;;;;;;;143.80;31.55;;;;;;;;;;5024225;28;20423;-72
2021/11/29 05:04:21;;;;;;;142.15;33.38;;;;;;;;;;5022601;28;20026;-72
2021/11/29 05:06:47;;;;;;;148.18;32.72;;;;;;;;;;5023398;28;20033;-72
2021/11/29 05:09:13;;;;;;;123.70;30.13;;;;;;;;;;5023368;28;20079;-72
2021/11/29 05:11:39;;;;;;;127.28;31.38;;;;;;;;;;5023428;28;20066;-72
2021/11/29 05:14:05;;;;;;;126.20;30.92;;;;;;;;;;5023224;28;20032;-72
2021/11/29 05:16:32;;;;;;;139.63;30.80;;;;;;;;;;5023751;28;20625;-72
2021/11/29 05:18:58;;;;;;;126.18;29.58;;;;;;;;;;5023481;28;20136;-72
2021/11/29 05:21:24;;;;;;;109.22;30.33;;;;;;;;;;5005343;28;20041;-72
2021/11/29 05:23:50;;;;;;;111.38;30.42;;;;;;;;;;5012563;28;20041;-72
2021/11/29 05:26:16;;;;;;;106.72;29.35;;;;;;;;;;5023463;28;20029;-72
2021/11/29 05:28:42;;;;;;;117.95;30.40;;;;;;;;;;5022998;28;20029;-72
2021/11/29 05:31:08;;;;;;;132.23;31.50;;;;;;;;;;5023378;28;20124;-72
2021/11/29 05:33:34;;;;;;;138.65;29.48;;;;;;;;;;5005132;28;20064;-72
2021/11/29 05:36:00;;;;;;;138.80;30.92;;;;;;;;;;5022880;28;20041;-72
2021/11/29 05:38:26;;;;;;;121.63;31.20;;;;;;;;;;5023409;28;20037;-72
2021/11/29 05:40:53;;;;;;;118.30;30.10;;;;;;;;;;5023240;28;20116;-72
2021/11/29 05:43:19;;;;;;;126.53;28.25;;;;;;;;;;5019298;28;20065;-72
2021/11/29 05:45:45;;;;;;;124.75;30.67;;;;;;;;;;5023016;28;20040;-72
2021/11/29 05:48:11;;;;;;;112.25;29.38;;;;;;;;;;5023044;28;20517;-72
2021/11/29 05:50:37;;;;;;;128.57;29.42;;;;;;;;;;5020841;28;20021;-72
2021/11/29 05:53:03;;;;;;;156.57;31.55;;;;;;;;;;5017678;28;20071;-70
2021/11/29 05:55:30;;;;;;;137.18;30.38;;;;;;;;;;5023060;28;20389;-71
2021/11/29 05:57:56;;;;;;;116.10;28.25;;;;;;;;;;5022589;28;20045;-71
2021/11/29 06:00:22;;;;;;;139.18;29.95;;;;;;;;;;5022841;28;20537;-71
2021/11/29 06:02:48;;;;;;;131.02;30.77;;;;;;;;;;5014410;28;20044;-71
2021/11/29 06:05:14;;;;;;;92.93;27.63;;;;;;;;;;5018599;28;20045;-71
2021/11/29 06:07:40;;;;;;;88.75;28.67;;;;;;;;;;5017563;28;20037;-70
2021/11/29 06:10:06;;;;;;;97.18;29.50;;;;;;;;;;5017575;28;20037;-70
2021/11/29 06:12:32;;;;;;;102.55;28.77;;;;;;;;;;5021552;28;20026;-71
2021/11/29 06:14:58;;;;;;;97.93;31.45;;;;;;;;;;5023201;28;20142;-71
2021/11/29 06:17:24;;;;;;;107.38;32.95;;;;;;;;;;5021654;28;20065;-72
2021/11/29 06:19:50;;;;;;;94.72;30.83;;;;;;;;;;5022176;28;20045;-71
2021/11/29 06:22:16;;;;;;;106.32;31.55;;;3.10;99.90;;;;;;5024794;28;20032;-71
2021/11/29 06:24:42;;;;;;;104.82;31.92;;;;;;;;;;5019575;28;20459;-71
2021/11/29 06:27:08;;;;;;;105.40;30.55;;;;;;;;;;5025444;28;20134;-70
2021/11/29 06:29:34;;;;;;;103.72;32.28;;;;;;;;;;5026082;28;20025;-72
2021/11/29 06:32:00;;;;;;;102.35;31.45;;;;;;;;;;5021285;28;20030;-71
2021/11/29 06:34:26;;;;;;;104.38;32.08;;;;;;;;;;5007857;28;20033;-71
2021/11/29 06:36:52;;;;;;;105.75;32.78;;;;;;;;;;5025950;28;20040;-71
2021/11/29 06:39:18;;;;;;;86.80;30.23;;;;;;;;;;5005154;28;20049;-72
2021/11/29 06:41:44;;;;;;;100.25;31.55;;;;;;;;;;5024247;28;20037;-71
2021/11/29 06:44:10;;;;;;;111.57;33.55;;;;;;;;;;5013366;28;20178;-71
2021/11/29 06:46:36;;;;;;;108.85;32.90;;;;;;;;;;5026131;28;20492;-71
2021/11/29 06:49:02;;;;;;;95.93;31.25;;;2.50;99.90;;;;;;5025660;28;20030;-72
2021/11/29 06:51:28;;;;;;;111.15;32.63;;;;;;;;;;5022780;28;20036;-71
2021/11/29 06:53:54;;;;;;;104.75;32.85;;;;;;;;;;5025462;28;20033;-71
2021/11/29 06:56:20;;;;;;;106.40;31.70;;;;;;;;;;5023379;28;20057;-71
2021/11/29 06:58:46;;;;;;;97.43;32.22;;;;;;;;;;5022713;28;20462;-71
2021/11/29 07:01:12;;;;;;;110.30;33.60;;;;;;;;;;5025569;28;20091;-71
2021/11/29 07:03:38;;;;;;;104.38;31.92;;;;;;;;;;5025194;28;20029;-71
2021/11/29 07:06:05;;;;;;;114.82;32.42;;;;;;;;;;5025065;28;20087;-71
2021/11/29 07:08:31;;;;;;;102.20;32.25;;;;;;;;;;5007674;28;20100;-71
2021/11/29 07:10:57;;;;;;;113.03;32.35;;;;;;;;;;4991603;28;20053;-72
2021/11/29 07:13:23;;;;;;;100.22;32.28;;;;;;;;;;5024457;28;20057;-71
2021/11/29 07:15:49;;;;;;;104.65;32.80;;;;;;;;;;5022029;28;20114;-71
2021/11/29 07:18:15;;;;;;;116.78;35.30;;;;;;;;;;5007467;28;20473;-71
2021/11/29 07:20:41;;;;;;;102.55;31.95;;;;;;;;;;5025311;28;20021;-71
2021/11/29 07:23:07;;;;;;;102.47;31.45;;;;;;;;;;5022021;28;20030;-71
2021/11/29 07:25:33;;;;;;;108.32;33.10;;;;;;;;;;5025113;28;20021;-71
2021/11/29 07:27:59;;;;;;;104.10;34.10;;;;;;;;;;5023730;28;20486;-71
2021/11/29 07:30:25;;;;;;;109.93;34.67;;;;;;;;;;5023907;28;20032;-71
2021/11/29 07:32:55;;;;;;;93.38;30.88;;;;;;;;;;5022205;28;20101;-71
2021/11/29 07:35:21;;;;;;;97.88;30.80;;;;;;;;;;5006715;28;20033;-71
2021/11/29 07:37:47;;;;;;;89.05;29.55;;;;;;;;;;5021772;28;20146;-71
2021/11/29 07:40:13;;;;;;;91.95;29.10;;;;;;;;;;5020385;28;20022;-71
2021/11/29 07:42:39;;;;;;;96.43;30.55;;;;;;;;;;5022402;28;20033;-71
2021/11/29 07:45:05;;;;;;;95.05;30.50;;;;;;;;;;5023100;28;20156;-71
2021/11/29 07:47:31;;;;;;;106.90;34.45;;;;;;;;;;5024722;28;20029;-71
2021/11/29 07:49:57;;;;;;;98.55;31.42;;;;;;;;;;5005149;28;20044;-71
2021/11/29 07:52:23;;;;;;;81.38;27.25;;;;;;;;;;5006524;28;20084;-72
2021/11/29 07:54:49;;;;;;;85.72;29.00;;;2.90;99.90;;;;;;5019232;28;20049;-71
2021/11/29 07:57:17;;;;;;;87.00;29.20;;;;;;;;;;5004987;28;20061;-72
2021/11/29 07:59:43;;;;;;;86.80;29.23;;;;;;;;;;5018046;28;20037;-71
2021/11/29 08:02:09;;;;;;;75.75;26.83;;;;;;;;;;4989330;28;20549;-71
2021/11/29 08:04:35;;;;;;;80.15;27.35;;;2.90;99.90;;;;;;5022678;28;20029;-72
2021/11/29 08:07:01;;;;;;;92.88;30.92;;;;;;;;;;5024301;28;20037;-71
2021/11/29 08:09:26;;;;;;;85.25;28.05;;;3.10;99.90;;;;;;5022669;28;20033;-71
2021/11/29 08:11:53;;;;;;;75.40;27.63;;;;;;;;;;5003824;28;20830;-70
2021/11/29 08:14:19;;;;;;;73.63;27.73;;;;;;;;;;5021346;28;20068;-71
2021/11/29 08:16:44;;;;;;;66.22;24.67;;;3.50;99.90;;;;;;5022847;28;20087;-71
2021/11/29 08:19:10;;;;;;;65.63;24.35;;;;;;;;;;5022070;28;20376;-70
2021/11/29 08:21:37;;;;;;;64.22;24.05;;;;;;;;;;5006745;28;20029;-71
2021/11/29 08:24:03;;;;;;;64.05;23.55;;;;;;;;;;5022458;28;20040;-71
2021/11/29 08:26:29;;;;;;;58.40;23.02;;;;;;;;;;5004957;28;20044;-70
2021/11/29 08:28:55;;;;;;;61.92;23.90;;;;;;;;;;5020862;28;20124;-70
2021/11/29 08:31:21;;;;;;;62.50;23.13;;;;;;;;;;5024332;28;20025;-70
2021/11/29 08:33:47;;;;;;;57.40;21.00;;;;;;;;;;5022662;28;20481;-71
2021/11/29 08:36:13;;;;;;;58.33;20.90;;;;;;;;;;5019822;28;20087;-71
2021/11/29 08:38:39;;;;;;;65.57;21.63;;;;;;;;;;5023319;28;20029;-74
2021/11/29 08:41:05;;;;;;;68.60;23.98;;;;;;;;;;5023980;28;20497;-73
2021/11/29 08:43:31;;;;;;;57.47;20.58;;;;;;;;;;5024010;28;20029;-72
2021/11/29 08:45:57;;;;;;;64.22;22.50;;;;;;;;;;5020072;28;20040;-72
2021/11/29 08:48:24;;;;;;;56.67;21.70;;;;;;;;;;5018772;28;20052;-72
2021/11/29 08:50:50;;;;;;;62.35;21.80;;;;;;;;;;5020808;28;20257;-73
2021/11/29 08:53:16;;;;;;;63.50;23.67;;;;;;;;;;5022618;28;20033;-73
2021/11/29 08:55:42;;;;;;;62.83;22.10;;;;;;;;;;5022943;28;20067;-78
2021/11/29 08:58:08;;;;;;;65.47;22.85;;;;;;;;;;5020775;28;20037;-72
2021/11/29 09:00:41;;;;;;;66.30;21.50;;;;;;;;;;5047580;28;20414;-73
2021/11/29 09:03:08;;;;;;;74.28;24.45;;;;;;;;;;5036530;28;20449;-73
2021/11/29 09:05:34;;;;;;;53.40;21.25;;;;;;;;;;5035097;28;20108;-71
2021/11/29 09:08:00;;;;;;;60.70;22.23;;;;;;;;;;5041354;28;20087;-71
2021/11/29 09:10:26;;;;;;;65.45;23.38;;;;;;;;;;5029415;28;20036;-71
2021/11/29 09:12:52;;;;;;;58.10;21.65;;;;;;;;;;5040131;28;20037;-71
2021/11/29 09:15:19;;;;;;;63.28;21.73;;;;;;;;;;5037260;28;20040;-71
2021/11/29 09:17:45;;;;;;;71.28;29.05;;;;;;;;;;5032392;28;20033;-71
2021/11/29 09:20:11;;;;;;;68.90;21.50;;;;;;;;;;5038854;28;20033;-71
2021/11/29 09:22:37;;;;;;;64.10;22.90;;;;;;;;;;5037318;28;20044;-71
2021/11/29 09:25:03;;;;;;;67.47;21.40;;;;;;;;;;5040526;28;20061;-71
2021/11/29 09:27:29;;;;;;;62.58;20.80;;;;;;;;;;5035830;28;20071;-71
2021/11/29 09:29:55;;;;;;;65.28;22.17;;;;;;;;;;5035135;28;20438;-71
2021/11/29 09:32:21;;;;;;;68.80;23.42;;;;;;;;;;5036211;28;20489;-71
2021/11/29 09:34:48;;;;;;;54.95;21.65;;;;;;;;;;5035859;28;20507;-71
2021/11/29 09:37:14;;;;;;;50.50;20.00;;;;;;;;;;5037241;28;20044;-70
2021/11/29 09:39:41;;;;;;;57.40;21.10;;;;;;;;;;5032379;28;20091;-71
2021/11/29 09:42:07;;;;;;;52.58;21.27;;;;;;;;;;5034415;28;20098;-70
2021/11/29 09:44:33;;;;;;;52.97;20.98;;;;;;;;;;5029564;28;20029;-70
2021/11/29 09:46:59;;;;;;;52.97;21.08;;;;;;;;;;5036867;28;20036;-71
2021/11/29 09:49:28;;;;;;;53.35;20.77;;;;;;;;;;5040721;28;20121;-70
2021/11/29 09:52:02;;;;;;;54.85;22.10;;;;;;;;;;5042966;28;20037;-71
2021/11/29 09:54:29;;;;;;;62.22;23.08;;;;;;;;;;5025085;28;20028;-70
2021/11/29 09:56:55;;;;;;;50.25;20.15;;;;;;;;;;5042424;28;20096;-68
2021/11/29 09:59:23;;;;;;;52.88;20.70;;;;;;;;;;5035671;28;20033;-67
2021/11/29 10:01:49;;;;;;;52.22;21.13;;;3.10;99.90;;;;;;5025742;28;20401;-67
2021/11/29 10:04:15;;;;;;;56.03;21.30;;;;;;;;;;5031289;28;20044;-70
2021/11/29 10:06:41;;;;;;;52.50;20.27;;;;;;;;;;5036251;28;20021;-69
2021/11/29 10:09:08;;;;;;;52.42;20.25;;;;;;;;;;5030624;28;20044;-69
2021/11/29 10:11:34;;;;;;;57.85;21.63;;;;;;;;;;5025552;28;20033;-69
2021/11/29 10:14:02;;;;;;;60.72;21.48;;;;;;;;;;5022878;28;20060;-69
2021/11/29 10:16:28;;;;;;;55.65;21.42;;;;;;;;;;5014906;28;20028;-70
2021/11/29 10:18:54;;;;;;;55.33;19.30;;;;;;;;;;5015639;28;20056;-69
2021/11/29 10:21:20;;;;;;;51.45;19.88;;;;;;;;;;5018224;28;20057;-69
2021/11/29 10:23:46;;;;;;;45.83;19.27;;;;;;;;;;5016881;28;20046;-70
2021/11/29 10:26:12;;;;;;;47.92;19.05;;;;;;;;;;5022120;28;20022;-69
2021/11/29 10:28:38;;;;;;;47.58;20.23;;;;;;;;;;5017129;28;20364;-69
2021/11/29 10:31:04;;;;;;;51.28;19.35;;;;;;;;;;5011858;28;20065;-69
2021/11/29 10:33:30;;;;;;;52.05;21.00;;;;;;;;;;5009179;28;20021;-69
2021/11/29 10:35:56;;;;;;;54.38;19.50;;;;;;;;;;5015379;28;20044;-69
2021/11/29 10:38:22;;;;;;;55.42;18.67;;;;;;;;;;5021206;28;20025;-68
2021/11/29 10:40:48;;;;;;;46.97;18.48;;;;;;;;;;5014327;28;20029;-70
2021/11/29 10:43:14;;;;;;;59.67;27.55;;;;;;;;;;5025870;28;20086;-70
2021/11/29 10:45:40;;;;;;;49.35;18.98;;;;;;;;;;5030290;28;20074;-69
2021/11/29 10:48:06;;;;;;;49.75;18.45;;;;;;;;;;5015458;28;20038;-69
2021/11/29 10:50:32;;;;;;;49.30;18.60;;;;;;;;;;5014245;28;20048;-69
2021/11/29 10:52:58;;;;;;;52.60;18.70;;;;;;;;;;5022915;28;20072;-70
2021/11/29 10:55:25;;;;;;;52.60;20.23;;;;;;;;;;5011709;28;20065;-69
2021/11/29 10:57:52;;;;;;;46.10;17.67;;;;;;;;;;5017273;28;20493;-69
2021/11/29 11:00:18;;;;;;;48.88;19.58;;;;;;;;;;5020755;28;20663;-68
2021/11/29 11:02:44;;;;;;;52.65;19.52;;;;;;;;;;5022852;28;20686;-69
2021/11/29 11:05:12;;;;;;;48.90;19.33;;;;;;;;;;5027950;28;20087;-69
2021/11/29 11:07:38;;;;;;;59.42;22.73;;;;;;;;;;5026029;28;20982;-69
2021/11/29 11:10:04;;;;;;;70.35;28.23;;;;;;;;;;5018465;28;20121;-69
2021/11/29 11:12:30;;;;;;;57.45;20.27;;;;;;;;;;5022969;28;20573;-69
2021/11/29 11:14:56;;;;;;;48.40;17.52;;;3.50;99.90;;;;;;5018705;28;20034;-69
2021/11/29 11:17:22;;;;;;;51.83;19.02;;;;;;;;;;5020426;28;20810;-69
2021/11/29 11:19:48;;;;;;;55.33;19.13;;;;;;;;;;5019110;28;20112;-70
2021/11/29 11:22:14;;;;;;;57.05;18.58;;;;;;;;;;5018306;28;20179;-69
2021/11/29 11:24:40;;;;;;;55.75;20.98;;;;;;;;;;5025096;28;20030;-69
2021/11/29 11:27:06;;;;;;;59.65;23.85;;;;;;;;;;5018671;28;20113;-62
2021/11/29 11:29:32;;;;;;;67.25;23.58;;;;;;;;;;5023297;28;20623;-63
2021/11/29 11:31:58;;;;;;;55.42;20.05;;;;;;;;;;5017669;28;20815;-63
2021/11/29 11:34:24;;;;;;;63.58;23.95;;;;;;;;;;5022683;28;20069;-64
2021/11/29 11:36:50;;;;;;;63.92;23.25;;;;;;;;;;5023019;28;20029;-62
2021/11/29 11:39:16;;;;;;;46.65;16.98;;;;;;;;;;5020240;28;20159;-63
2021/11/29 11:41:43;;;;;;;45.92;17.73;;;;;;;;;;5009635;28;20244;-63
2021/11/29 11:44:09;;;;;;;47.72;17.42;;;;;;;;;;5017216;28;20033;-62
2021/11/29 11:46:35;;;;;;;40.28;16.65;;;;;;;;;;5022495;28;20030;-63
2021/11/29 11:49:01;;;;;;;41.22;14.60;;;;;;;;;;5015996;28;20083;-63
2021/11/29 11:51:27;;;;;;;35.22;14.30;;;;;;;;;;5022522;28;20087;-62
2021/11/29 11:53:53;;;;;;;34.25;14.88;;;;;;;;;;5019355;28;20033;-63
2021/11/29 11:56:19;;;;;;;37.95;15.32;;;;;;;;;;5020615;28;20576;-62
2021/11/29 11:58:45;;;;;;;36.35;16.73;;;;;;;;;;5010063;28;20042;-62
2021/11/29 12:01:11;;;;;;;37.22;15.95;;;;;;;;;;5017081;28;20040;-62
2021/11/29 12:03:39;;;;;;;31.10;13.25;;;;;;;;;;5003693;28;20099;-63
2021/11/29 12:06:06;;;;;;;32.35;13.55;;;;;;;;;;5026552;28;20041;-62
2021/11/29 12:08:32;;;;;;;35.63;13.27;;;;;;;;;;5015725;28;20490;-63
2021/11/29 12:10:58;;;;;;;30.95;12.82;;;;;;;;;;5019693;28;20029;-62
2021/11/29 12:13:25;;;;;;;30.52;12.20;;;;;;;;;;5007324;28;20029;-62
2021/11/29 12:15:50;;;;;;;32.60;13.75;;;4.90;99.90;;;;;;5013815;28;20642;-63
2021/11/29 12:18:16;;;;;;;28.65;11.63;;;;;;;;;;5020527;28;20753;-63
2021/11/29 12:20:43;;;;;;;25.35;10.98;;;;;;;;;;5021063;28;20060;-63
2021/11/29 12:23:09;;;;;;;27.52;10.82;;;;;;;;;;5012584;28;20045;-62
2021/11/29 12:25:38;;;;;;;27.13;10.80;;;;;;;;;;5012820;28;20093;-62
2021/11/29 12:28:04;;;;;;;25.70;10.68;;;;;;;;;;5013477;28;20048;-63
2021/11/29 12:30:31;;;;;;;27.80;11.15;;;;;;;;;;5012586;28;20059;-63
2021/11/29 12:33:02;;;;;;;16.92;8.35;;;;;;;;;;5018188;28;21855;-63
2021/11/29 12:35:28;;;;;;;16.50;7.88;;;;;;;;;;5015460;28;20037;-63
2021/11/29 12:37:54;;;;;;;16.77;8.25;;;;;;;;;;5027935;28;20040;-63
2021/11/29 12:40:20;;;;;;;15.30;7.57;;;;;;;;;;5021853;28;20033;-63
2021/11/29 12:42:48;;;;;;;17.02;7.90;;;;;;;;;;5022919;28;20041;-63
2021/11/29 12:45:14;;;;;;;19.35;8.25;;;;;;;;;;5010997;28;20712;-63
2021/11/29 12:47:40;;;;;;;17.77;8.40;;;;;;;;;;5020414;28;20076;-63
2021/11/29 12:50:06;;;;;;;15.65;7.35;;;;;;;;;;5013985;28;20037;-63
2021/11/29 12:52:32;;;;;;;16.08;7.90;;;;;;;;;;5023375;28;20029;-63
2021/11/29 12:54:58;;;;;;;16.25;7.80;;;;;;;;;;5017597;28;20040;-62
2021/11/29 12:57:24;;;;;;;17.27;7.97;;;;;;;;;;5011258;28;20520;-63
2021/11/29 12:59:50;;;;;;;19.73;8.45;;;;;;;;;;5017803;28;20501;-63
2021/11/29 13:02:16;;;;;;;20.02;8.23;;;;;;;;;;5012491;28;20061;-63
2021/11/29 13:04:43;;;;;;;18.15;8.52;;;;;;;;;;5016981;28;20091;-63
2021/11/29 13:07:09;;;;;;;17.95;8.40;;;;;;;;;;5018289;28;20527;-63
2021/11/29 13:09:35;;;;;;;15.02;6.75;;;;;;;;;;5011030;28;20084;-63
2021/11/29 13:12:01;;;;;;;16.23;6.78;;;;;;;;;;5023535;28;20037;-63
2021/11/29 13:14:28;;;;;;;15.43;6.90;;;;;;;;;;5019696;28;20029;-63
2021/11/29 13:16:54;;;;;;;17.40;8.00;;;;;;;;;;5012493;28;20045;-63
2021/11/29 13:19:21;;;;;;;15.85;7.00;;;;;;;;;;5015491;28;20030;-63
2021/11/29 13:21:48;;;;;;;14.45;7.03;;;;;;;;;;5011600;28;20076;-63
2021/11/29 13:24:14;;;;;;;18.58;8.57;;;;;;;;;;5015189;28;20041;-63
2021/11/29 13:26:40;;;;;;;15.60;8.15;;;4.20;99.90;;;;;;5017886;28;20236;-63
2021/11/29 13:29:06;;;;;;;19.55;8.73;;;;;;;;;;5015379;28;20136;-63
2021/11/29 13:31:32;;;;;;;16.85;8.05;;;;;;;;;;5015587;28;20199;-63
2021/11/29 13:33:58;;;;;;;17.75;8.35;;;;;;;;;;5015505;28;20040;-63
2021/11/29 13:36:24;;;;;;;18.35;8.48;;;;;;;;;;5017678;28;20038;-63
2021/11/29 13:38:57;;;;;;;18.05;8.32;;;;;;;;;;5016140;28;20034;-62
2021/11/29 13:41:25;;;;;;;16.77;7.97;;;;;;;;;;5013224;28;20056;-63
2021/11/29 13:43:51;;;;;;;17.25;8.30;;;;;;;;;;5016671;28;20029;-63
2021/11/29 13:46:17;;;;;;;16.50;8.40;;;;;;;;;;5023803;28;20036;-63
2021/11/29 13:48:44;;;;;;;17.77;8.75;;;;;;;;;;5022942;28;20034;-63
2021/11/29 13:51:10;;;;;;;19.10;8.45;;;;;;;;;;5021636;28;20034;-62
2021/11/29 13:53:39;;;;;;;17.83;9.35;;;;;;;;;;5020267;28;20063;-63
2021/11/29 13:56:07;;;;;;;19.10;8.32;;;;;;;;;;5013710;28;20790;-63
2021/11/29 13:58:34;;;;;;;19.27;8.77;;;;;;;;;;5013029;28;20077;-63
2021/11/29 14:01:00;;;;;;;19.38;8.57;;;;;;;;;;5018718;28;20021;-63
2021/11/29 14:03:26;;;;;;;16.88;8.10;;;;;;;;;;5018590;28;20154;-63
2021/11/29 14:05:53;;;;;;;17.40;7.78;;;;;;;;;;5019322;28;20042;-63